createdAt,value
2023-03-26T00:00:23.500Z,14.90
2023-03-26T00:03:18.003Z,12.60
2023-03-26T00:06:08.635Z,12.20
2023-03-26T00:08:47.011Z,12.10
2023-03-26T00:11:31.100Z,12.30
2023-03-26T00:14:07.018Z,12.90
2023-03-26T00:16:43.545Z,12.90
2023-03-26T00:19:28.067Z,12.50
2023-03-26T00:22:00.693Z,13.00
2023-03-26T00:24:37.640Z,11.50
2023-03-26T00:27:12.396Z,11.80
2023-03-26T00:29:45.127Z,11.60
2023-03-26T00:32:21.059Z,11.00
2023-03-26T00:34:54.345Z,10.20
2023-03-26T00:37:30.438Z,10.60
2023-03-26T00:40:07.038Z,8.80
2023-03-26T00:42:40.254Z,8.70
2023-03-26T00:45:17.245Z,8.70
2023-03-26T00:47:51.855Z,7.60
2023-03-26T00:50:25.279Z,7.40
2023-03-26T00:53:08.868Z,6.80
2023-03-26T00:55:41.765Z,7.20
2023-03-26T00:58:18.109Z,7.00
2023-03-26T01:00:57.483Z,6.30
2023-03-26T01:03:36.450Z,6.30
2023-03-26T01:06:27.839Z,6.60
2023-03-26T01:09:06.445Z,6.20
2023-03-26T01:11:39.296Z,6.90
2023-03-26T01:14:19.114Z,7.50
2023-03-26T01:16:55.151Z,7.60
2023-03-26T01:19:38.154Z,6.10
2023-03-26T01:22:14.824Z,5.30
2023-03-26T01:24:53.421Z,5.00
2023-03-26T01:27:39.085Z,5.00
2023-03-26T01:30:24.343Z,4.90
2023-03-26T01:33:14.068Z,4.90
2023-03-26T01:36:00.459Z,4.60
2023-03-26T01:38:48.428Z,4.90
2023-03-26T01:41:31.761Z,5.10
2023-03-26T01:44:22.760Z,5.60
2023-03-26T01:47:01.194Z,5.20
2023-03-26T01:52:14.341Z,6.00
2023-03-26T01:54:47.346Z,6.70
2023-03-26T01:57:34.144Z,6.00
2023-03-26T02:00:26.453Z,7.00
2023-03-26T02:03:23.555Z,6.40
2023-03-26T02:06:05.448Z,6.90
2023-03-26T02:09:04.580Z,6.90
2023-03-26T02:11:50.189Z,6.40
2023-03-26T02:14:26.327Z,6.50
2023-03-26T02:17:03.011Z,7.10
2023-03-26T02:19:45.353Z,5.90
2023-03-26T02:22:18.241Z,5.90
2023-03-26T02:24:51.617Z,5.50
2023-03-26T02:27:25.930Z,5.60
2023-03-26T02:30:02.523Z,6.60
2023-03-26T02:32:36.969Z,6.30
2023-03-26T02:35:14.665Z,5.40
2023-03-26T02:37:51.245Z,5.10
2023-03-26T02:40:25.624Z,4.70
2023-03-26T02:43:00.924Z,4.40
2023-03-26T02:45:47.531Z,4.70
2023-03-26T02:48:38.964Z,4.60
2023-03-26T02:51:20.279Z,4.40
2023-03-26T02:54:08.090Z,4.30
2023-03-26T02:56:41.104Z,4.40
2023-03-26T02:59:24.488Z,4.50
2023-03-26T03:02:15.028Z,4.00
2023-03-26T03:04:48.465Z,3.50
2023-03-26T03:07:24.702Z,3.60
2023-03-26T03:10:03.480Z,3.60
2023-03-26T03:12:56.364Z,4.30
2023-03-26T03:15:31.768Z,3.50
2023-03-26T03:18:07.563Z,3.50
2023-03-26T03:20:40.673Z,3.30
2023-03-26T03:23:13.558Z,3.80
2023-03-26T03:25:52.994Z,3.50
2023-03-26T03:28:26.767Z,3.40
2023-03-26T03:31:01.898Z,3.20
2023-03-26T03:33:38.618Z,3.70
2023-03-26T03:36:20.964Z,3.40
2023-03-26T03:39:02.952Z,3.50
2023-03-26T03:41:36.093Z,3.60
2023-03-26T03:44:12.277Z,3.00
2023-03-26T03:46:45.352Z,3.00
2023-03-26T03:49:18.178Z,3.10
2023-03-26T03:51:52.561Z,3.20
2023-03-26T03:54:32.101Z,2.70
2023-03-26T03:57:33.593Z,3.00
2023-03-26T04:00:13.148Z,2.50
2023-03-26T04:02:48.614Z,2.70
2023-03-26T04:05:22.539Z,2.50
2023-03-26T04:08:00.122Z,2.10
2023-03-26T04:10:32.994Z,2.20
2023-03-26T04:13:26.154Z,2.50
2023-03-26T04:16:10.865Z,1.90
2023-03-26T04:18:45.268Z,2.40
2023-03-26T04:21:30.483Z,2.20
2023-03-26T04:24:03.442Z,2.00
2023-03-26T04:27:01.177Z,2.20
2023-03-26T04:29:45.761Z,2.10
2023-03-26T04:32:30.261Z,2.00
2023-03-26T04:35:07.540Z,2.10
2023-03-26T04:37:53.164Z,1.90
2023-03-26T04:40:34.905Z,1.50
2023-03-26T04:43:20.110Z,1.90
2023-03-26T04:46:12.433Z,2.00
2023-03-26T04:48:55.369Z,1.90
2023-03-26T04:51:38.788Z,1.70
2023-03-26T04:54:21.730Z,1.50
2023-03-26T04:57:04.345Z,1.40
2023-03-26T05:00:01.306Z,1.50
2023-03-26T05:02:56.439Z,1.50
2023-03-26T05:05:50.872Z,1.40
2023-03-26T05:08:33.663Z,1.30
2023-03-26T05:11:28.029Z,1.20
2023-03-26T05:14:21.597Z,1.20
2023-03-26T05:17:11.913Z,1.50
2023-03-26T05:20:05.321Z,1.50
2023-03-26T05:23:00.494Z,1.50
2023-03-26T05:25:52.313Z,1.20
2023-03-26T05:28:46.012Z,1.20
2023-03-26T05:31:41.494Z,1.40
2023-03-26T05:34:36.233Z,1.30
2023-03-26T05:37:31.191Z,1.50
2023-03-26T05:40:25.194Z,1.80
2023-03-26T05:43:11.794Z,1.60
2023-03-26T05:46:13.813Z,1.20
2023-03-26T05:49:07.082Z,1.80
2023-03-26T05:52:00.603Z,1.80
2023-03-26T05:54:57.229Z,1.40
2023-03-26T05:58:08.404Z,1.60
2023-03-26T06:01:05.896Z,1.50
2023-03-26T06:03:59.092Z,1.60
2023-03-26T06:06:45.230Z,1.40
2023-03-26T06:09:18.746Z,1.40
2023-03-26T06:12:12.845Z,1.20
2023-03-26T06:14:50.173Z,1.40
2023-03-26T06:17:31.847Z,1.10
2023-03-26T06:20:15.731Z,1.70
2023-03-26T06:23:09.237Z,1.30
2023-03-26T06:25:58.129Z,1.50
2023-03-26T06:29:04.771Z,1.30
2023-03-26T06:32:16.639Z,1.20
2023-03-26T06:34:56.465Z,1.40
2023-03-26T06:37:39.537Z,1.50
2023-03-26T06:40:32.485Z,1.50
2023-03-26T06:43:27.162Z,1.00
2023-03-26T06:46:21.495Z,1.20
2023-03-26T06:49:32.462Z,1.40
2023-03-26T06:52:28.726Z,1.30
2023-03-26T06:55:20.454Z,1.30
2023-03-26T06:58:16.856Z,2.00
2023-03-26T07:01:08.933Z,1.40
2023-03-26T07:04:01.170Z,1.60
2023-03-26T07:06:52.683Z,1.40
2023-03-26T07:09:45.011Z,1.20
2023-03-26T07:12:48.864Z,1.50
2023-03-26T07:15:41.091Z,1.30
2023-03-26T07:18:36.526Z,1.60
2023-03-26T07:24:18.351Z,1.50
2023-03-26T07:27:19.554Z,1.60
2023-03-26T07:30:22.849Z,1.50
2023-03-26T07:33:15.763Z,1.60
2023-03-26T07:36:25.667Z,1.90
2023-03-26T07:39:32.518Z,1.40
2023-03-26T07:42:58.294Z,1.20
2023-03-26T07:45:50.763Z,1.20
2023-03-26T07:48:48.023Z,1.40
2023-03-26T07:51:42.176Z,1.30
2023-03-26T07:54:31.049Z,1.30
2023-03-26T07:57:35.000Z,1.30
2023-03-26T08:00:32.144Z,1.10
2023-03-26T08:03:44.044Z,1.50
2023-03-26T08:06:39.680Z,1.90
2023-03-26T08:10:03.335Z,1.50
2023-03-26T08:12:59.304Z,1.50
2023-03-26T08:15:39.347Z,1.20
2023-03-26T08:18:29.023Z,1.80
2023-03-26T08:21:10.052Z,1.30
2023-03-26T08:23:57.807Z,1.70
2023-03-26T08:26:44.490Z,1.30
2023-03-26T08:29:28.125Z,1.30
2023-03-26T08:32:01.804Z,1.50
2023-03-26T08:34:37.325Z,1.50
2023-03-26T08:37:30.376Z,1.90
2023-03-26T08:40:03.369Z,2.50
2023-03-26T08:43:14.992Z,3.30
2023-03-26T08:46:10.527Z,7.40
2023-03-26T08:49:31.982Z,7.20
2023-03-26T08:52:38.436Z,2.90
2023-03-26T08:55:36.776Z,2.00
2023-03-26T08:59:04.966Z,1.90
2023-03-26T09:02:32.465Z,2.10
2023-03-26T09:05:54.904Z,2.50
2023-03-26T09:09:21.284Z,2.70
2023-03-26T09:12:21.165Z,2.40
2023-03-26T09:15:17.506Z,4.10
2023-03-26T09:18:21.396Z,4.00
2023-03-26T09:21:30.152Z,2.70
2023-03-26T09:24:44.025Z,2.10
2023-03-26T09:27:38.332Z,2.40
2023-03-26T09:30:53.505Z,2.30
2023-03-26T09:34:11.606Z,2.00
2023-03-26T09:37:27.899Z,1.70
2023-03-26T09:40:27.043Z,2.20
2023-03-26T09:43:44.101Z,2.30
2023-03-26T09:46:48.842Z,2.90
2023-03-26T09:49:46.401Z,2.40
2023-03-26T09:52:52.342Z,2.60
2023-03-26T09:55:56.782Z,2.20
2023-03-26T09:59:12.845Z,2.40
2023-03-26T10:02:45.437Z,2.40
2023-03-26T10:05:59.150Z,2.60
2023-03-26T10:09:12.461Z,1.80
2023-03-26T10:12:10.023Z,1.90
2023-03-26T10:17:39.074Z,1.90
2023-03-26T10:20:45.400Z,1.40
2023-03-26T10:23:53.021Z,1.60
2023-03-26T10:27:09.330Z,1.60
2023-03-26T10:30:29.578Z,1.80
2023-03-26T10:33:32.087Z,1.90
2023-03-26T10:36:32.713Z,1.90
2023-03-26T10:39:44.912Z,1.60
2023-03-26T10:42:43.377Z,1.60
2023-03-26T10:45:33.313Z,1.60
2023-03-26T10:48:36.516Z,1.30
2023-03-26T10:51:51.310Z,2.60
2023-03-26T10:54:39.784Z,1.40
2023-03-26T10:57:27.542Z,1.70
2023-03-26T11:00:26.527Z,1.50
2023-03-26T11:03:22.246Z,1.40
2023-03-26T11:06:06.416Z,1.70
2023-03-26T11:08:48.307Z,1.40
2023-03-26T11:11:27.415Z,1.60
2023-03-26T11:14:13.681Z,2.00
2023-03-26T11:17:02.436Z,2.10
2023-03-26T11:19:44.021Z,2.00
2023-03-26T11:22:36.171Z,1.70
2023-03-26T11:25:31.662Z,1.70
2023-03-26T11:28:18.087Z,1.60
2023-03-26T11:31:00.596Z,2.20
2023-03-26T11:33:45.486Z,2.00
2023-03-26T11:36:32.767Z,2.10
2023-03-26T11:39:10.665Z,2.40
2023-03-26T11:42:00.509Z,2.10
2023-03-26T11:44:48.466Z,2.10
2023-03-26T11:47:26.816Z,2.10
2023-03-26T11:50:04.928Z,2.00
2023-03-26T11:52:37.754Z,3.10
2023-03-26T11:55:15.931Z,10.80
2023-03-26T11:57:55.462Z,6.50
2023-03-26T12:00:48.872Z,3.70
2023-03-26T12:03:38.463Z,1.60
2023-03-26T12:06:27.576Z,2.10
2023-03-26T12:09:03.947Z,4.90
2023-03-26T12:11:41.805Z,1.60
2023-03-26T12:14:20.520Z,3.60
2023-03-26T12:17:05.131Z,1.70
2023-03-26T12:19:58.150Z,1.30
2023-03-26T12:22:43.610Z,2.30
2023-03-26T12:25:24.659Z,3.70
2023-03-26T12:28:22.691Z,1.80
2023-03-26T12:31:18.373Z,1.50
2023-03-26T12:34:15.748Z,1.70
2023-03-26T12:37:03.756Z,1.80
2023-03-26T12:40:06.717Z,0.70
2023-03-26T12:44:44.921Z,1.00
2023-03-26T12:45:44.538Z,1.10
2023-03-26T12:48:21.329Z,0.90
2023-03-26T12:51:06.717Z,0.70
2023-03-26T12:54:10.029Z,1.00
2023-03-26T12:57:12.101Z,1.10
2023-03-26T13:00:27.000Z,1.20
2023-03-26T13:03:27.545Z,1.00
2023-03-26T13:06:16.698Z,0.90
2023-03-26T13:09:19.747Z,1.10
2023-03-26T13:12:07.397Z,1.10
2023-03-26T13:15:09.763Z,1.00
2023-03-26T13:18:20.523Z,1.10
2023-03-26T13:21:06.238Z,1.10
2023-03-26T13:24:00.858Z,0.80
2023-03-26T13:26:49.260Z,0.90
2023-03-26T13:29:33.803Z,0.90
2023-03-26T13:32:17.304Z,1.20
2023-03-26T13:35:08.941Z,1.20
2023-03-26T13:38:12.987Z,1.50
2023-03-26T13:40:58.829Z,1.70
2023-03-26T13:43:50.910Z,1.60
2023-03-26T13:46:32.226Z,1.00
2023-03-26T13:49:16.625Z,1.30
2023-03-26T13:51:57.379Z,1.10
2023-03-26T13:54:55.970Z,1.20
2023-03-26T13:57:39.492Z,1.40
2023-03-26T14:00:26.727Z,1.50
2023-03-26T14:03:04.116Z,1.60
2023-03-26T14:05:49.815Z,1.10
2023-03-26T14:08:37.521Z,1.00
2023-03-26T14:11:14.427Z,1.20
2023-03-26T14:14:04.083Z,1.30
2023-03-26T14:16:52.790Z,1.50
2023-03-26T14:20:13.400Z,1.20
2023-03-26T14:23:18.433Z,1.60
2023-03-26T14:29:05.758Z,1.10
2023-03-26T14:31:44.563Z,1.10
2023-03-26T14:34:43.132Z,5.00
2023-03-26T14:37:42.029Z,3.30
2023-03-26T14:40:52.543Z,3.00
2023-03-26T14:43:54.038Z,4.10
2023-03-26T14:46:43.272Z,4.60
2023-03-26T14:49:53.824Z,6.60
2023-03-26T14:52:38.430Z,8.70
2023-03-26T14:55:18.605Z,2.60
2023-03-26T14:58:36.202Z,2.10
2023-03-26T15:01:26.856Z,1.50
2023-03-26T15:04:36.607Z,1.40
2023-03-26T15:10:59.026Z,10.10
2023-03-26T15:13:57.141Z,23.40
2023-03-26T15:17:13.451Z,4.50
2023-03-26T15:20:52.057Z,7.30
2023-03-26T15:24:19.643Z,4.80
2023-03-26T15:27:52.078Z,4.60
2023-03-26T15:31:18.775Z,5.00
2023-03-26T15:34:27.640Z,3.70
2023-03-26T15:37:31.984Z,5.60
2023-03-26T15:40:32.220Z,4.70
2023-03-26T15:43:33.558Z,5.70
2023-03-26T15:46:33.950Z,8.40
2023-03-26T15:49:16.583Z,8.60
2023-03-26T15:52:22.386Z,6.60
2023-03-26T15:55:04.371Z,6.20
2023-03-26T15:58:02.183Z,5.70
2023-03-26T16:00:40.638Z,5.90
2023-03-26T16:03:43.242Z,9.50
2023-03-26T16:06:48.911Z,6.00
2023-03-26T16:09:48.334Z,6.20
2023-03-26T16:12:46.310Z,7.10
2023-03-26T16:15:39.915Z,6.20
2023-03-26T16:18:29.910Z,6.70
2023-03-26T16:21:47.704Z,13.20
2023-03-26T16:24:34.781Z,9.50
2023-03-26T16:27:32.262Z,8.40
2023-03-26T16:30:34.105Z,11.10
2023-03-26T16:33:17.967Z,7.90
2023-03-26T16:36:06.650Z,7.50
2023-03-26T16:39:18.864Z,8.20
2023-03-26T16:42:05.928Z,20.20
2023-03-26T16:44:50.167Z,18.80
2023-03-26T16:47:34.034Z,13.90
2023-03-26T16:50:18.907Z,14.90
2023-03-26T16:53:01.015Z,19.10
2023-03-26T16:55:43.919Z,18.10
2023-03-26T16:58:31.110Z,18.50
2023-03-26T17:01:21.406Z,17.50
2023-03-26T17:04:04.346Z,16.90
2023-03-26T17:07:02.213Z,20.00
2023-03-26T17:12:34.187Z,21.20
2023-03-26T17:15:32.236Z,19.30
2023-03-26T17:18:25.949Z,19.30
2023-03-26T17:21:07.712Z,19.00
2023-03-26T17:24:01.492Z,20.00
2023-03-26T17:26:45.545Z,20.30
2023-03-26T17:29:31.330Z,20.10
2023-03-26T17:35:00.780Z,19.80
2023-03-26T17:37:49.994Z,20.80
2023-03-26T17:40:55.187Z,18.90
2023-03-26T17:43:46.934Z,19.00
2023-03-26T17:46:38.618Z,18.50
2023-03-26T17:49:20.470Z,17.60
2023-03-26T17:52:26.869Z,13.70
2023-03-26T17:55:04.551Z,13.20
2023-03-26T17:57:52.376Z,13.40
2023-03-26T18:00:32.670Z,13.40
2023-03-26T18:03:21.308Z,15.50
2023-03-26T18:06:00.923Z,11.70
2023-03-26T18:09:08.578Z,16.40
2023-03-26T18:12:12.186Z,17.70
2023-03-26T18:15:23.450Z,19.50
2023-03-26T18:18:04.098Z,15.60
2023-03-26T18:20:39.282Z,20.80
2023-03-26T18:23:31.189Z,22.30
2023-03-26T18:26:17.652Z,19.40
2023-03-26T18:29:24.186Z,18.00
2023-03-26T18:32:02.730Z,19.70
2023-03-26T18:35:01.047Z,20.40
2023-03-26T18:37:47.658Z,22.60
2023-03-26T18:40:22.245Z,23.90
2023-03-26T18:43:02.860Z,26.50
2023-03-26T18:45:38.812Z,25.70
2023-03-26T18:48:20.489Z,25.80
2023-03-26T18:51:16.074Z,28.70
2023-03-26T18:54:01.873Z,29.20
2023-03-26T18:56:40.344Z,29.60
2023-03-26T18:59:28.278Z,29.40
2023-03-26T19:02:07.465Z,23.70
2023-03-26T19:04:46.168Z,23.50
2023-03-26T19:07:42.910Z,38.80
2023-03-26T19:10:22.235Z,33.10
2023-03-26T19:13:03.262Z,25.90
2023-03-26T19:15:57.870Z,31.00
2023-03-26T19:18:43.999Z,28.50
2023-03-26T19:21:23.346Z,24.70
2023-03-26T19:24:08.061Z,28.00
2023-03-26T19:27:01.331Z,30.40
2023-03-26T19:29:54.606Z,30.30
2023-03-26T19:33:13.046Z,28.50
2023-03-26T19:36:21.324Z,28.70
2023-03-26T19:39:24.269Z,27.70
2023-03-26T19:42:42.950Z,27.20
2023-03-26T19:45:37.784Z,26.70
2023-03-26T19:48:54.301Z,27.20
2023-03-26T19:51:52.362Z,25.60
2023-03-26T19:54:59.359Z,28.40
2023-03-26T19:57:34.875Z,26.60
2023-03-26T20:00:22.749Z,29.60
2023-03-26T20:03:16.749Z,28.00
2023-03-26T20:06:02.326Z,25.90
2023-03-26T20:08:56.203Z,26.80
2023-03-26T20:11:50.410Z,25.30
2023-03-26T20:14:45.473Z,30.80
2023-03-26T20:17:42.998Z,28.60
2023-03-26T20:20:27.550Z,31.10
2023-03-26T20:23:20.506Z,31.40
2023-03-26T20:26:16.518Z,31.20
2023-03-26T20:29:02.359Z,30.00
2023-03-26T20:31:56.522Z,31.80
2023-03-26T20:34:49.915Z,33.50
2023-03-26T20:37:43.189Z,33.20
2023-03-26T20:40:36.166Z,32.00
2023-03-26T20:43:30.350Z,31.50
2023-03-26T20:46:31.628Z,32.20
2023-03-26T20:49:25.284Z,29.30
2023-03-26T20:52:18.821Z,30.10
2023-03-26T20:55:06.319Z,32.10
2023-03-26T20:57:59.673Z,31.90
2023-03-26T21:00:53.151Z,33.40
2023-03-26T21:03:46.270Z,33.00
2023-03-26T21:06:28.992Z,36.60
2023-03-26T21:09:21.956Z,36.10
2023-03-26T21:12:25.968Z,34.90
2023-03-26T21:15:22.757Z,34.50
2023-03-26T21:21:28.111Z,33.20
2023-03-26T21:24:33.507Z,30.00
2023-03-26T21:27:30.990Z,31.70
2023-03-26T21:30:26.055Z,28.90
2023-03-26T21:33:13.913Z,31.50
2023-03-26T21:36:07.869Z,33.10
2023-03-26T21:39:01.860Z,32.90
2023-03-26T21:42:04.845Z,33.60
2023-03-26T21:45:02.284Z,37.40
2023-03-26T21:47:46.689Z,32.90
2023-03-26T21:50:24.947Z,33.30
2023-03-26T21:53:18.977Z,32.20
2023-03-26T21:56:24.137Z,33.20
2023-03-26T21:59:27.790Z,33.70
2023-03-26T22:02:29.643Z,35.30
2023-03-26T22:05:26.081Z,35.80
2023-03-26T22:08:18.034Z,37.50
2023-03-26T22:11:12.749Z,34.90
2023-03-26T22:14:06.298Z,37.40
2023-03-26T22:16:49.141Z,45.70
2023-03-26T22:19:21.688Z,39.50
2023-03-26T22:22:00.283Z,36.80
2023-03-26T22:24:53.661Z,32.00
2023-03-26T22:27:46.810Z,31.10
2023-03-26T22:30:40.097Z,31.30
2023-03-26T22:33:18.053Z,30.90
2023-03-26T22:36:23.365Z,31.50
2023-03-26T22:39:17.293Z,31.10
2023-03-26T22:42:10.213Z,31.90
2023-03-26T22:45:05.388Z,32.90
2023-03-26T22:48:03.597Z,39.20
2023-03-26T22:50:47.871Z,37.30
2023-03-26T22:53:40.793Z,37.30
2023-03-26T22:56:33.544Z,41.80
2023-03-26T22:59:06.198Z,43.40
2023-03-26T23:01:59.267Z,41.40
2023-03-26T23:04:50.716Z,41.70
2023-03-26T23:07:28.686Z,38.40
2023-03-26T23:10:22.994Z,38.90
2023-03-26T23:13:15.859Z,36.20
2023-03-26T23:16:11.388Z,36.90
2023-03-26T23:19:04.475Z,35.10
2023-03-26T23:21:58.500Z,35.50
2023-03-26T23:24:37.901Z,36.20
2023-03-26T23:27:18.050Z,37.60
2023-03-26T23:30:17.965Z,36.50
2023-03-26T23:33:13.556Z,37.50
2023-03-26T23:35:47.534Z,38.00
2023-03-26T23:38:43.481Z,37.90
2023-03-26T23:41:37.111Z,37.20
2023-03-26T23:44:30.440Z,36.20
2023-03-26T23:47:03.379Z,37.80
2023-03-26T23:49:45.515Z,35.70
2023-03-26T23:52:38.789Z,35.80
2023-03-26T23:55:24.286Z,37.00
2023-03-26T23:58:07.174Z,35.60
